Time;durP1;ratioP1;P1;durP2;ratioP2;P2;SDS_P1;SDS_P2;PMS_P1;PMS_P2;Temp;Humidity;BMP_temperature;BMP_pressure;BME280_temperature;BME280_humidity;BME280_pressure;Samples;Min_cycle;Max_cycle;Signal;HPM_P1;HPM_P2
2023/07/15 00:01:39;;;;;;;0.80;0.80;;;;;;;26.48;89.84;95421.72;5091693;28;20433;-55
2023/07/15 00:04:13;;;;;;;0.80;0.73;;;;;;;26.43;89.80;95428.25;5091821;28;20444;-55
2023/07/15 00:06:42;;;;;;;0.50;0.50;;;;;;;26.38;91.96;95428.56;5093648;28;20443;-55
2023/07/15 00:09:10;;;;;;;0.73;0.70;;;;;;;26.30;91.78;95426.09;5094946;28;20432;-55
2023/07/15 00:11:42;;;;;;;1.00;0.67;;;;;;;26.29;90.44;95428.03;5095708;28;20829;-55
2023/07/15 00:14:17;;;;;;;4.20;0.70;;;;;;;26.34;90.45;95422.28;5095662;28;20436;-55
2023/07/15 00:16:46;;;;;;;0.50;0.30;;;;;;;26.21;94.03;95428.31;5095156;28;20529;-55
2023/07/15 00:19:17;;;;;;;0.40;0.30;;;;;;;26.03;94.10;95417.16;5095313;28;20440;-55
2023/07/15 00:21:46;;;;;;;3.60;0.60;;;;;;;26.08;93.18;95421.47;5095356;28;20448;-54
2023/07/15 00:24:15;;;;;;;0.60;0.47;;;;;;;26.17;90.96;95422.03;5095632;28;20441;-55
2023/07/15 00:27:02;;;;;;;1.27;0.80;;;;;;;26.21;91.78;95426.34;5095621;28;20515;-55
2023/07/15 00:29:30;;;;;;;0.57;0.40;;;;;;;26.14;91.78;95428.97;5095173;28;20441;-55
2023/07/15 00:32:01;;;;;;;0.93;0.93;;;;;;;26.17;89.89;95430.19;5094782;28;20433;-55
2023/07/15 00:34:31;;;;;;;0.57;0.57;;;;;;;26.12;92.41;95433.22;5095323;28;21000;-55
2023/07/15 00:37:00;;;;;;;0.40;0.30;;;;;;;26.10;90.83;95430.84;5095275;28;20436;-54
2023/07/15 00:39:28;;;;;;;0.40;0.30;;;;;;;26.14;89.79;95431.69;5095524;28;20505;-54
2023/07/15 00:42:00;;;;;;;3.03;0.50;;;;;;;25.78;92.62;95440.38;5068606;28;20490;-56
2023/07/15 00:44:27;;;;;;;0.80;0.77;;;;;;;25.65;97.98;95447.94;5093740;28;20473;-54
2023/07/15 00:47:21;;;;;;;0.93;0.40;;;;;;;25.47;96.23;95436.00;5082959;28;20813;-55
2023/07/15 00:49:51;;;;;;;0.50;0.50;;;;;;;25.68;95.76;95443.72;5094520;28;20468;-54
2023/07/15 00:52:22;;;;;;;0.60;0.60;;;;;;;25.44;99.38;95442.13;5094816;28;20440;-55
2023/07/15 00:54:54;;;;;;;1.17;1.10;;;;;;;25.22;100.00;95451.00;5095031;28;20486;-54
2023/07/15 00:57:22;;;;;;;1.60;1.50;;;;;;;24.55;100.00;95427.91;5094773;28;20432;-54
2023/07/15 00:59:58;;;;;;;1.20;1.10;;;;;;;24.02;100.00;95345.47;5093957;28;20542;-54
2023/07/15 01:02:30;;;;;;;0.50;0.47;;;;;;;24.78;100.00;95458.66;5093037;28;20444;-54
2023/07/15 01:04:58;;;;;;;1.13;0.77;;;;;;;25.11;100.00;95461.66;5093356;28;20486;-54
2023/07/15 01:07:27;;;;;;;0.67;0.67;;;;;;;24.82;100.00;95407.22;5093185;28;21005;-54
2023/07/15 01:09:57;;;;;;;0.60;0.60;;;;;;;24.68;100.00;95451.03;5093388;28;20493;-54
2023/07/15 01:12:25;;;;;;;0.50;0.40;;;;;;;24.78;100.00;95453.22;5093306;28;20999;-54
2023/07/15 01:14:54;;;;;;;0.50;0.43;;;;;;;24.84;100.00;95451.81;5093266;28;20905;-54
2023/07/15 01:17:22;;;;;;;0.57;0.40;;;;;;;25.10;100.00;95457.34;5092744;28;20441;-54
2023/07/15 01:19:53;;;;;;;4.03;1.00;;;;;;;25.35;100.00;95443.50;5093242;28;20436;-54
2023/07/15 01:22:23;;;;;;;0.70;0.70;;;;;;;25.39;100.00;95444.34;5092810;28;20448;-56
2023/07/15 01:24:53;;;;;;;0.73;0.67;;;;;;;25.22;100.00;95443.63;5093098;28;20475;-55
2023/07/15 01:27:21;;;;;;;0.43;0.30;;;;;;;25.33;100.00;95443.03;5067454;28;20437;-55
2023/07/15 01:29:50;;;;;;;0.60;0.60;;;;;;;25.31;100.00;95440.69;5092764;28;20472;-54
2023/07/15 01:32:18;;;;;;;0.50;0.40;;;;;;;25.44;100.00;95444.81;5085098;28;20471;-55
2023/07/15 01:34:47;;;;;;;0.50;0.50;;;;;;;25.40;100.00;95432.34;5087401;28;20469;-55
2023/07/15 01:37:15;;;;;;;0.50;0.40;;;;;;;25.43;100.00;95439.75;5092798;28;20815;-55
2023/07/15 01:39:47;;;;;;;1.13;1.13;;;;;;;25.38;100.00;95453.59;5092601;28;20514;-56
2023/07/15 01:42:17;;;;;;;0.50;0.40;;;;;;;25.41;100.00;95444.75;5093235;28;20459;-56
2023/07/15 01:44:45;;;;;;;0.60;0.47;;;;;;;25.32;100.00;95439.56;5092544;28;20433;-55
2023/07/15 01:47:13;;;;;;;1.40;1.30;;;;;;;25.37;100.00;95455.56;5092588;28;20824;-56
2023/07/15 01:49:42;;;;;;;0.60;0.50;;;;;;;25.34;100.00;95463.63;5092290;28;20441;-56
2023/07/15 01:52:10;;;;;;;0.57;0.43;;;;;;;25.30;100.00;95452.69;5093122;28;20818;-56
2023/07/15 01:54:39;;;;;;;0.60;0.40;;;;;;;25.31;100.00;95450.75;5092587;28;20460;-56
2023/07/15 01:57:07;;;;;;;2.60;0.60;;;;;;;24.88;100.00;95387.59;5092446;28;20484;-55
2023/07/15 01:59:37;;;;;;;3.93;0.63;;;;;;;25.29;100.00;95453.06;5047701;28;1277850;-55
2023/07/15 02:02:05;;;;;;;0.67;0.43;;;;;;;25.28;100.00;95446.84;5093403;28;20606;-55
2023/07/15 02:04:34;;;;;;;0.57;0.40;;;;;;;25.25;100.00;95461.91;5092899;28;21004;-56
2023/07/15 02:07:02;;;;;;;0.97;0.87;;;;;;;25.22;100.00;95461.88;5092711;28;20523;-55
2023/07/15 02:09:34;;;;;;;1.00;0.60;;;;;;;25.22;100.00;95467.28;5067708;28;20439;-56
2023/07/15 02:12:02;;;;;;;0.50;0.40;;;;;;;25.22;100.00;95462.63;5093324;28;20437;-55
2023/07/15 02:14:30;;;;;;;0.73;0.57;;;;;;;25.23;100.00;95468.84;5093063;28;20490;-56
2023/07/15 02:17:00;;;;;;;0.60;0.40;;;;;;;25.21;100.00;95471.94;5092851;28;20869;-55
2023/07/15 02:19:30;;;;;;;1.10;1.00;;;;;;;25.24;99.36;95476.63;5093297;28;20441;-56
2023/07/15 02:21:59;;;;;;;0.40;0.40;;;;;;;25.18;99.62;95478.06;5092780;28;20440;-56
2023/07/15 02:24:29;;;;;;;0.60;0.50;;;;;;;24.92;100.00;95472.47;5093126;28;20536;-56
2023/07/15 02:26:57;;;;;;;3.27;0.87;;;;;;;24.75;100.00;95467.44;5093022;28;20448;-56
2023/07/15 02:29:26;;;;;;;0.60;0.50;;;;;;;24.91;100.00;95468.22;5092416;28;20436;-55
2023/07/15 02:31:54;;;;;;;0.67;0.60;;;;;;;24.82;100.00;95473.06;5092318;28;20436;-56
2023/07/15 02:34:24;;;;;;;0.67;0.67;;;;;;;24.46;100.00;95474.16;5093216;28;20465;-56
2023/07/15 02:36:52;;;;;;;4.00;0.83;;;;;;;24.69;100.00;95466.19;5092536;28;20464;-56
2023/07/15 02:39:21;;;;;;;2.40;0.60;;;;;;;24.95;100.00;95468.28;5092840;28;20451;-56
2023/07/15 02:41:50;;;;;;;3.57;0.40;;;;;;;24.90;100.00;95461.22;5092870;28;20520;-55
2023/07/15 02:44:18;;;;;;;2.47;0.60;;;;;;;24.69;100.00;95470.81;5092686;28;20436;-55
2023/07/15 02:46:47;;;;;;;0.50;0.40;;;;;;;24.49;100.00;95481.59;5092528;28;20441;-55
2023/07/15 02:49:17;;;;;;;0.50;0.47;;;;;;;24.44;100.00;95481.88;5092852;28;20864;-55
2023/07/15 02:51:46;;;;;;;0.40;0.30;;;;;;;24.42;100.00;95483.38;5092469;28;20909;-55
2023/07/15 02:54:15;;;;;;;0.90;0.63;;;;;;;24.50;100.00;95480.47;5092176;28;20498;-55
2023/07/15 02:56:43;;;;;;;0.60;0.57;;;;;;;24.55;100.00;95482.91;5092483;28;20980;-55
2023/07/15 02:59:11;;;;;;;0.50;0.33;;;;;;;24.78;100.00;95485.75;5091929;28;20469;-55
2023/07/15 03:01:40;;;;;;;0.50;0.40;;;;;;;24.72;100.00;95480.94;5092560;28;20587;-55
2023/07/15 03:04:08;;;;;;;0.50;0.30;;;;;;;24.83;100.00;95487.41;5092055;28;20520;-54
2023/07/15 03:06:36;;;;;;;0.60;0.50;;;;;;;24.85;100.00;95491.31;5092366;28;20470;-56
2023/07/15 03:09:06;;;;;;;0.97;0.60;;;;;;;24.86;100.00;95495.63;5091853;28;20953;-55
2023/07/15 03:11:34;;;;;;;0.73;0.70;;;;;;;24.89;100.00;95492.19;5092307;28;20440;-58
2023/07/15 03:14:03;;;;;;;0.60;0.57;;;;;;;24.87;100.00;95499.88;5092044;28;20448;-56
2023/07/15 03:16:32;;;;;;;0.50;0.50;;;;;;;24.94;100.00;95494.63;5092071;28;20517;-58
2023/07/15 03:19:00;;;;;;;0.90;0.70;;;;;;;25.10;100.00;95503.47;5091989;28;20436;-59
2023/07/15 03:21:28;;;;;;;1.20;0.93;;;;;;;25.07;100.00;95501.47;5092280;28;20441;-58
2023/07/15 03:23:57;;;;;;;0.60;0.60;;;;;;;24.97;100.00;95504.75;5092018;28;20497;-57
2023/07/15 03:26:26;;;;;;;2.87;1.60;;;;;;;25.12;100.00;95511.25;5091937;28;20445;-58
2023/07/15 03:28:56;;;;;;;1.47;0.60;;;;;;;25.14;100.00;95515.19;5066440;28;20437;-58
2023/07/15 03:31:24;;;;;;;1.23;1.13;;;;;;;25.20;100.00;95521.88;5091516;28;21002;-58
2023/07/15 03:33:53;;;;;;;1.33;0.50;;;;;;;25.08;100.00;95497.63;5091828;28;20879;-58
2023/07/15 03:36:24;;;;;;;0.70;0.67;;;;;;;25.21;100.00;95520.75;5091951;28;20506;-58
2023/07/15 03:38:53;;;;;;;1.33;1.23;;;;;;;25.25;100.00;95521.59;5091654;28;21021;-58
2023/07/15 03:41:21;;;;;;;0.77;0.70;;;;;;;25.27;100.00;95517.75;5090923;28;20491;-57
2023/07/15 03:43:50;;;;;;;2.10;1.20;;;;;;;25.19;100.00;95522.25;5091611;28;20476;-58
2023/07/15 03:46:19;;;;;;;1.10;1.00;;;;;;;25.32;100.00;95528.31;5091451;28;20468;-58
2023/07/15 03:48:47;;;;;;;1.03;0.93;;;;;;;25.37;100.00;95531.53;5091806;28;20440;-58
2023/07/15 03:51:16;;;;;;;1.60;0.80;;;;;;;25.31;100.00;95524.81;5091456;28;20794;-57
2023/07/15 03:53:44;;;;;;;1.83;1.20;;;;;;;24.98;100.00;95528.03;5091639;28;20945;-58
2023/07/15 03:56:12;;;;;;;1.33;1.23;;;;;;;24.71;100.00;95523.53;5091542;28;20873;-57
2023/07/15 03:58:41;;;;;;;1.30;1.20;;;;;;;24.95;100.00;95528.72;5091782;28;20831;-58
2023/07/15 04:01:11;;;;;;;2.50;0.80;;;;;;;25.14;100.00;95536.91;5091184;28;20502;-57
2023/07/15 04:03:39;;;;;;;1.33;0.90;;;;;;;25.20;100.00;95535.44;5091169;28;20486;-57
2023/07/15 04:06:07;;;;;;;1.77;1.63;;;;;;;25.19;100.00;95531.19;5091482;28;20804;-57
2023/07/15 04:08:36;;;;;;;0.73;0.60;;;;;;;25.15;100.00;95516.75;5091632;28;20475;-57
2023/07/15 04:11:07;;;;;;;1.77;1.67;;;;;;;25.31;100.00;95532.16;5091808;28;20437;-57
2023/07/15 04:13:37;;;;;;;1.17;1.10;;;;;;;25.03;100.00;95537.78;5091042;28;20436;-57
2023/07/15 04:16:06;;;;;;;1.47;1.37;;;;;;;24.86;100.00;95541.72;5091425;28;20901;-57
2023/07/15 04:18:36;;;;;;;3.73;1.50;;;;;;;25.17;100.00;95547.00;5090832;28;20436;-57
2023/07/15 04:21:04;;;;;;;0.70;0.70;;;;;;;25.41;100.00;95551.38;5090955;28;20875;-57
2023/07/15 04:23:33;;;;;;;0.67;0.60;;;;;;;25.49;100.00;95544.19;5091608;28;20445;-56
2023/07/15 04:26:03;;;;;;;1.03;0.93;;;;;;;25.53;100.00;95553.19;5091580;28;20812;-57
2023/07/15 04:28:31;;;;;;;1.27;0.83;;;;;;;25.55;100.00;95548.19;5091208;28;20432;-55
2023/07/15 04:30:59;;;;;;;1.40;1.17;;;;;;;25.37;100.00;95560.59;5091234;28;20502;-56
2023/07/15 04:33:28;;;;;;;1.63;1.53;;;;;;;24.86;100.00;95555.25;5091086;28;20436;-56
2023/07/15 04:35:57;;;;;;;13.13;1.33;;;;;;;25.25;100.00;95562.28;5091611;28;20498;-56
2023/07/15 04:38:26;;;;;;;1.33;1.23;;;;;;;25.29;100.00;95553.44;5091390;28;20476;-56
2023/07/15 04:40:54;;;;;;;1.10;1.00;;;;;;;25.19;100.00;95560.22;5091203;28;20470;-55
2023/07/15 04:43:22;;;;;;;0.80;0.80;;;;;;;25.14;100.00;95563.22;5090766;28;20489;-55
2023/07/15 04:45:51;;;;;;;1.40;1.30;;;;;;;25.11;100.00;95548.44;5091243;28;20437;-56
2023/07/15 04:48:19;;;;;;;1.67;1.07;;;;;;;25.26;100.00;95563.09;5090987;28;20507;-57
2023/07/15 04:50:48;;;;;;;5.07;2.97;;;;;;;24.84;100.00;95557.56;5091042;28;20467;-53
2023/07/15 04:53:17;;;;;;;5.40;1.70;;;;;;;24.61;100.00;95549.25;5094185;28;20481;-56
2023/07/15 04:55:47;;;;;;;2.20;2.10;;;;;;;24.69;100.00;95561.06;5094253;28;20932;-54
2023/07/15 04:58:15;;;;;;;1.27;1.17;;;;;;;24.46;100.00;95562.81;5094908;28;20887;-56
2023/07/15 05:00:44;;;;;;;1.80;1.70;;;;;;;24.48;100.00;95561.34;5094247;28;20483;-55
2023/07/15 05:03:12;;;;;;;1.43;1.33;;;;;;;24.65;100.00;95565.59;5094724;28;20436;-55
2023/07/15 05:05:41;;;;;;;1.50;1.40;;;;;;;25.02;100.00;95561.41;5094397;28;20444;-55
2023/07/15 05:08:16;;;;;;;0.90;0.90;;;;;;;25.14;100.00;95568.66;5094610;28;20475;-55
2023/07/15 05:10:48;;;;;;;2.27;1.90;;;;;;;25.26;100.00;95549.53;5094361;28;20436;-55
2023/07/15 05:13:17;;;;;;;1.20;1.10;;;;;;;25.82;100.00;95566.94;5094183;28;20479;-55
2023/07/15 05:15:45;;;;;;;1.40;1.30;;;;;;;25.99;100.00;95554.81;5093828;28;20479;-55
2023/07/15 05:18:15;;;;;;;2.63;1.20;;;;;;;25.90;100.00;95567.06;5093927;28;20506;-54
2023/07/15 05:20:45;;;;;;;1.13;1.03;;;;;;;25.93;100.00;95569.06;5094097;28;20432;-54
2023/07/15 05:23:14;;;;;;;1.57;1.47;;;;;;;25.80;100.00;95563.03;5094503;28;20493;-53
2023/07/15 05:25:42;;;;;;;1.63;1.53;;;;;;;26.11;100.00;95568.22;5068036;28;20436;-54
2023/07/15 05:28:12;;;;;;;2.37;2.17;;;;;;;25.83;100.00;95570.47;5093304;28;20807;-53
2023/07/15 05:30:40;;;;;;;2.10;0.97;;;;;;;25.81;100.00;95570.81;5094309;28;20440;-54
2023/07/15 05:33:09;;;;;;;4.83;0.93;;;;;;;26.11;100.00;95554.63;5094391;28;20472;-54
2023/07/15 05:35:37;;;;;;;2.37;1.90;;;;;;;26.66;100.00;95560.63;5093706;28;20440;-53
2023/07/15 05:38:06;;;;;;;2.30;2.20;;;;;;;26.62;98.36;95551.59;5093416;28;20517;-53
2023/07/15 05:40:34;;;;;;;2.53;2.40;;;;;;;26.49;98.41;95564.63;5093987;28;20952;-54
2023/07/15 05:43:02;;;;;;;1.30;1.20;;;;;;;26.27;100.00;95568.94;5093702;28;20437;-53
2023/07/15 05:45:32;;;;;;;4.23;3.33;;;;;;;26.94;95.94;95564.56;5094136;28;20519;-53
2023/07/15 05:48:00;;;;;;;2.07;1.63;;;;;;;26.89;94.88;95570.31;5093603;28;20474;-52
2023/07/15 05:50:32;;;;;;;4.20;2.80;;;;;;;26.38;98.83;95561.75;5093977;28;20493;-53
2023/07/15 05:53:00;;;;;;;1.97;1.87;;;;;;;27.01;96.75;95561.94;5093588;28;20432;-53
2023/07/15 05:55:29;;;;;;;0.80;0.80;;;;;;;27.28;93.25;95564.63;5093401;28;20969;-54
2023/07/15 05:57:57;;;;;;;2.73;2.63;;;;;;;27.29;92.71;95561.53;5092857;28;20484;-53
2023/07/15 06:00:26;;;;;;;5.37;3.27;;;;;;;27.16;92.90;95560.19;5093371;28;20510;-54
2023/07/15 06:02:56;;;;;;;2.37;1.20;;;;;;;27.48;92.88;95564.13;5092937;28;20448;-54
2023/07/15 06:05:25;;;;;;;1.10;1.00;;;;;;;27.72;88.27;95546.53;5092651;28;20432;-53
2023/07/15 06:07:53;;;;;;;1.47;1.37;;;;;;;28.03;86.50;95558.94;5093026;28;20441;-54
2023/07/15 06:10:21;;;;;;;2.10;1.13;;;;;;;28.45;87.14;95550.34;5092938;28;20800;-52
2023/07/15 06:12:50;;;;;;;1.97;1.87;;;;;;;28.23;84.93;95539.25;5092934;28;21000;-51
2023/07/15 06:15:18;;;;;;;4.43;2.93;;;;;;;28.33;84.89;95548.69;5092811;28;21016;-53
2023/07/15 06:17:47;;;;;;;1.80;1.70;;;;;;;28.57;85.39;95552.75;5093007;28;20463;-57
2023/07/15 06:20:18;;;;;;;2.60;2.50;;;;;;;28.46;84.03;95549.97;5093037;28;20444;-60
2023/07/15 06:22:46;;;;;;;0.87;0.87;;;;;;;28.38;82.39;95510.19;5093270;28;20440;-61
2023/07/15 06:25:16;;;;;;;2.10;2.00;;;;;;;28.64;82.27;95550.91;5092420;28;20544;-56
2023/07/15 06:27:44;;;;;;;5.87;1.70;;;;;;;28.32;82.21;95558.03;5093212;28;20448;-54
2023/07/15 06:30:13;;;;;;;2.00;1.90;;;;;;;28.87;80.45;95556.91;5092649;28;20429;-55
2023/07/15 06:32:41;;;;;;;0.80;0.80;;;;;;;28.68;81.11;95548.22;5093123;28;20443;-55
2023/07/15 06:35:10;;;;;;;5.03;3.33;;;;;;;29.17;77.94;95553.19;5092246;28;21012;-55
2023/07/15 06:37:40;;;;;;;7.27;2.20;;;;;;;29.18;77.58;95550.06;5092681;28;20436;-55
2023/07/15 06:40:09;;;;;;;1.77;0.90;;;;;;;29.83;75.52;95552.72;5092986;28;20882;-54
2023/07/15 06:42:37;;;;;;;6.53;1.37;;;;;;;29.90;75.23;95552.75;5092489;28;20489;-53
2023/07/15 06:45:06;;;;;;;1.67;1.57;;;;;;;30.36;72.59;95546.59;5092961;28;20488;-53
2023/07/15 06:47:35;;;;;;;0.93;0.93;;;;;;;30.31;71.62;95542.25;5092573;28;20501;-54
2023/07/15 06:50:04;;;;;;;3.40;2.17;;;;;;;30.08;71.32;95537.13;5092488;28;20436;-54
2023/07/15 06:52:32;;;;;;;1.50;1.40;;;;;;;30.69;70.38;95540.69;5092186;28;20502;-55
2023/07/15 06:55:02;;;;;;;2.00;1.90;;;;;;;30.47;70.38;95542.69;5092665;28;20459;-55
2023/07/15 06:57:31;;;;;;;6.93;1.43;;;;;;;30.30;69.03;95535.22;5092172;28;20445;-55
2023/07/15 07:00:00;;;;;;;1.47;1.17;;;;;;;30.99;70.51;95535.63;5092253;28;20561;-55
2023/07/15 07:02:28;;;;;;;2.00;0.90;;;;;;;31.18;67.38;95534.38;5091953;28;20485;-55
2023/07/15 07:04:57;;;;;;;1.23;1.20;;;;;;;31.83;64.21;95541.94;5082203;28;20813;-55
2023/07/15 07:07:25;;;;;;;2.87;1.87;;;;;;;31.59;64.58;95535.44;5089081;28;20441;-55
2023/07/15 07:09:53;;;;;;;6.63;2.40;;;;;;;31.74;61.87;95536.91;5092497;28;20443;-55
2023/07/15 07:12:23;;;;;;;1.47;1.37;;;;;;;32.37;66.76;95534.97;5091762;28;20493;-55
2023/07/15 07:14:52;;;;;;;4.80;1.50;;;;;;;31.65;64.03;95533.81;5091615;28;20443;-54
2023/07/15 07:17:21;;;;;;;1.30;1.20;;;;;;;32.05;64.60;95529.72;5091990;28;20952;-54
2023/07/15 07:19:49;;;;;;;4.10;0.77;;;;;;;32.44;62.81;95540.41;5092084;28;20475;-54
2023/07/15 07:22:17;;;;;;;1.80;1.70;;;;;;;32.41;60.77;95525.50;5091667;28;20428;-55
2023/07/15 07:24:47;;;;;;;3.03;0.93;;;;;;;32.19;59.04;95528.81;5091752;28;20892;-54
2023/07/15 07:27:15;;;;;;;1.80;0.93;;;;;;;32.75;58.92;95522.13;5091778;28;20482;-54
2023/07/15 07:29:45;;;;;;;2.07;1.97;;;;;;;31.89;56.92;95444.41;5091701;28;20443;-54
2023/07/15 07:32:13;;;;;;;3.90;2.03;;;;;;;31.54;58.97;95518.63;5065976;28;20827;-54
2023/07/15 07:34:41;;;;;;;0.70;0.70;;;;;;;32.45;58.98;95526.28;5091687;28;20459;-54
2023/07/15 07:37:10;;;;;;;1.00;1.00;;;;;;;33.31;57.01;95529.81;5091587;28;20516;-54
2023/07/15 07:39:38;;;;;;;1.90;1.80;;;;;;;33.09;54.59;95520.25;5091540;28;20873;-53
2023/07/15 07:42:08;;;;;;;1.67;1.60;;;;;;;33.60;54.00;95519.28;5091768;28;20440;-55
2023/07/15 07:44:36;;;;;;;2.10;2.00;;;;;;;34.01;54.56;95524.59;5091281;28;20447;-54
2023/07/15 07:47:06;;;;;;;2.10;1.63;;;;;;;33.56;55.37;95521.28;5091742;28;20458;-54
2023/07/15 07:49:34;;;;;;;3.20;1.70;;;;;;;33.37;54.01;95522.66;5091400;28;20460;-54
2023/07/15 07:52:03;;;;;;;2.03;1.93;;;;;;;33.75;52.89;95526.91;5091914;28;20523;-54
2023/07/15 07:54:33;;;;;;;7.20;1.50;;;;;;;33.88;53.51;95520.88;5091934;28;20436;-54
2023/07/15 07:57:01;;;;;;;1.27;1.17;;;;;;;34.08;52.98;95524.53;5090561;28;20440;-54
2023/07/15 07:59:30;;;;;;;0.93;0.90;;;;;;;33.72;53.70;95524.22;5090527;28;21015;-54
2023/07/15 08:01:58;;;;;;;2.60;1.53;;;;;;;33.97;52.08;95521.91;5091707;28;20439;-54
2023/07/15 08:04:28;;;;;;;1.60;1.50;;;;;;;34.27;51.84;95521.09;5091023;28;20927;-55
2023/07/15 08:07:00;;;;;;;1.33;1.23;;;;;;;34.50;52.64;95518.34;5091546;28;20443;-54
2023/07/15 08:09:29;;;;;;;14.67;2.43;;;;;;;33.99;52.42;95522.25;5091886;28;20463;-54
2023/07/15 08:11:57;;;;;;;1.67;1.57;;;;;;;34.02;52.14;95524.19;5091538;28;21029;-54
2023/07/15 08:14:26;;;;;;;1.83;1.73;;;;;;;34.86;52.52;95516.59;5091886;28;20467;-54
2023/07/15 08:16:54;;;;;;;0.90;0.90;;;;;;;35.47;50.49;95516.25;5090845;28;20436;-54
2023/07/15 08:19:23;;;;;;;3.17;2.83;;;;;;;34.54;51.03;95523.78;5091837;28;20471;-53
2023/07/15 08:21:53;;;;;;;1.40;1.40;;;;;;;35.01;50.23;95514.34;5090730;28;20443;-54
2023/07/15 08:24:21;;;;;;;1.87;1.07;;;;;;;35.34;51.03;95509.81;5091000;28;20444;-54
2023/07/15 08:26:50;;;;;;;2.43;2.23;;;;;;;35.92;50.16;95508.97;5091263;28;21078;-55
2023/07/15 08:29:18;;;;;;;0.63;0.60;;;;;;;35.93;49.96;95501.47;5095038;28;20945;-55
2023/07/15 08:31:47;;;;;;;1.23;1.10;;;;;;;35.56;48.68;95497.16;5094735;28;20435;-54
2023/07/15 08:34:15;;;;;;;0.77;0.77;;;;;;;35.72;49.37;95488.94;5095295;28;20277;-54
2023/07/15 08:36:44;;;;;;;1.23;1.10;;;;;;;36.33;51.91;95502.16;5095255;28;20251;-56
2023/07/15 08:39:13;;;;;;;0.67;0.67;;;;;;;35.87;51.18;95494.91;5095184;28;20705;-56
2023/07/15 08:41:43;;;;;;;2.60;1.40;;;;;;;35.47;52.05;95497.69;5094427;28;20669;-55
2023/07/15 08:44:14;;;;;;;1.43;1.30;;;;;;;35.88;50.24;95488.16;5095737;28;20194;-56
2023/07/15 08:46:44;;;;;;;1.60;1.50;;;;;;;36.24;48.51;95492.47;5094976;28;20189;-55
2023/07/15 08:49:13;;;;;;;1.63;1.53;;;;;;;36.68;46.97;95490.25;5095152;28;20254;-56
2023/07/15 08:51:45;;;;;;;1.50;1.13;;;;;;;36.76;46.54;95467.53;5069586;28;20243;-56
2023/07/15 08:54:15;;;;;;;0.70;0.70;;;;;;;37.28;46.35;95481.13;5094731;28;20201;-56
2023/07/15 08:56:44;;;;;;;0.60;0.60;;;;;;;37.82;47.70;95483.16;5095198;28;20189;-56
2023/07/15 08:59:16;;;;;;;0.80;0.57;;;;;;;38.03;44.01;95479.75;5094562;28;20229;-56
2023/07/15 09:01:44;;;;;;;0.97;0.70;;;;;;;38.16;47.27;95483.28;5095064;28;20252;-56
2023/07/15 09:04:13;;;;;;;1.15;0.90;;;;;;;38.00;45.13;95484.16;5094690;28;20277;-54
2023/07/15 09:06:42;;;;;;;0.90;0.90;;;;;;;37.74;45.43;95482.59;5094635;28;20194;-62
2023/07/15 09:09:12;;;;;;;1.90;1.00;;;;;;;37.28;45.16;95483.91;5094284;28;20233;-56
2023/07/15 09:11:43;;;;;;;1.23;1.13;;;;;;;37.45;44.54;95479.88;5094745;28;20201;-57
2023/07/15 09:14:15;;;;;;;1.50;1.40;;;;;;;36.91;47.46;95476.22;5094455;28;20193;-58
2023/07/15 09:16:44;;;;;;;1.25;1.23;;;;;;;37.03;45.03;95480.28;5094293;28;20209;-55
2023/07/15 09:19:14;;;;;;;0.95;0.95;;;;;;;37.53;46.38;95474.91;5094425;28;20224;-57
2023/07/15 09:21:55;;;;;;;3.80;1.77;;;;;;;38.27;44.41;95474.63;5094363;28;20198;-55
2023/07/15 09:24:23;;;;;;;2.25;2.15;;;;;;;37.96;43.53;95480.75;5094498;28;20205;-57
2023/07/15 09:26:55;;;;;;;0.77;0.77;;;;;;;38.09;44.63;95480.75;5094128;28;20189;-55
2023/07/15 09:29:23;;;;;;;0.75;0.75;;;;;;;38.18;43.57;95483.59;5094228;28;20646;-56
2023/07/15 09:31:51;;;;;;;1.70;0.70;;;;;;;38.11;42.62;95478.31;5093878;28;20247;-56
2023/07/15 09:34:23;;;;;;;7.18;1.77;;;;;;;37.99;42.35;95476.31;5094448;28;20701;-56
2023/07/15 09:36:52;;;;;;;1.20;1.10;;;;;;;37.46;43.04;95473.16;5094593;28;20611;-56
2023/07/15 09:39:23;;;;;;;0.50;0.50;;;;;;;38.27;42.80;95417.28;5093589;28;20305;-56
2023/07/15 09:42:03;;;;;;;4.10;3.17;;;;;;;37.17;43.19;95466.81;5094053;28;20190;-56
2023/07/15 09:44:36;;;;;;;2.05;1.80;;;;;;;38.36;44.97;95455.38;5094095;28;20212;-56
2023/07/15 09:47:05;;;;;;;0.80;0.80;;;;;;;38.77;42.68;95421.94;5093961;28;20189;-55
2023/07/15 09:49:34;;;;;;;1.98;1.60;;;;;;;38.52;41.48;95463.53;5093570;28;20194;-56
2023/07/15 09:52:05;;;;;;;0.95;0.80;;;;;;;38.97;42.00;95443.81;5093851;28;20190;-55
2023/07/15 09:54:34;;;;;;;0.93;0.93;;;;;;;38.85;42.41;95458.50;5093664;28;20193;-56
2023/07/15 09:57:08;;;;;;;1.02;1.02;;;;;;;38.18;43.08;95450.38;5093851;28;20193;-56
2023/07/15 09:59:45;;;;;;;2.35;1.80;;;;;;;37.33;43.10;95452.94;5087678;28;20234;-56
2023/07/15 10:02:26;;;;;;;1.63;1.52;;;;;;;38.07;44.00;95447.19;5087199;28;20208;-56
2023/07/15 10:05:01;;;;;;;1.73;1.63;;;;;;;38.45;44.04;95447.19;5071804;28;20204;-56
2023/07/15 10:07:30;;;;;;;0.80;0.80;;;;;;;38.93;43.93;95437.63;5093527;28;20193;-55
2023/07/15 10:09:59;;;;;;;1.05;0.90;;;;;;;38.15;42.69;95434.69;5093727;28;20231;-56
2023/07/15 10:12:30;;;;;;;4.05;1.48;;;;;;;38.02;42.38;95429.16;5093603;28;20216;-56
2023/07/15 10:15:00;;;;;;;3.70;1.60;;;;;;;37.32;43.70;95418.22;5093581;28;20197;-54
2023/07/15 10:17:34;;;;;;;0.93;0.93;;;;;;;38.02;43.75;95418.09;5093624;28;20198;-53
2023/07/15 10:20:04;;;;;;;5.97;1.13;;;;;;;37.42;43.20;95421.94;5093282;28;20577;-53
2023/07/15 10:22:34;;;;;;;1.23;1.20;;;;;;;37.86;43.86;95412.66;5093094;28;20586;-53
2023/07/15 10:25:04;;;;;;;0.70;0.70;;;;;;;38.32;42.49;95416.75;5093075;28;20224;-53
2023/07/15 10:27:34;;;;;;;1.10;1.10;;;;;;;38.50;41.52;95405.06;5093252;28;20229;-53
2023/07/15 10:30:23;;;;;;;2.67;1.63;;;;;;;37.81;42.16;95409.66;5092855;28;20682;-54
2023/07/15 10:33:11;;;;;;;2.08;1.98;;;;;;;38.53;41.55;95413.22;5092995;28;20267;-53
2023/07/15 10:35:53;;;;;;;2.08;1.83;;;;;;;38.12;42.52;95385.75;5071821;28;20550;-53
2023/07/15 10:38:26;;;;;;;5.65;2.97;;;;;;;38.56;41.09;95404.03;5093046;28;20318;-53
2023/07/15 10:40:57;;;;;;;0.90;0.88;;;;;;;39.52;40.38;95387.47;5093017;28;20258;-53
2023/07/15 10:43:38;;;;;;;2.40;1.40;;;;;;;39.75;39.71;95387.00;5093019;28;20233;-52
2023/07/15 10:46:08;;;;;;;4.63;1.20;;;;;;;40.54;39.98;95377.03;5092885;28;20197;-52
2023/07/15 10:48:37;;;;;;;2.42;2.33;;;;;;;39.07;39.96;95387.19;5093253;28;20251;-53
2023/07/15 10:51:06;;;;;;;1.67;1.58;;;;;;;38.86;40.82;95386.00;5092106;28;20196;-52
2023/07/15 10:53:35;;;;;;;0.88;0.88;;;;;;;38.82;41.46;95379.78;5092650;28;20194;-52
2023/07/15 10:56:05;;;;;;;1.77;1.67;;;;;;;39.27;40.65;95362.69;5092390;28;20194;-52
2023/07/15 10:58:36;;;;;;;2.35;2.15;;;;;;;38.00;41.40;95379.00;5092578;28;20216;-52
2023/07/15 11:01:06;;;;;;;4.93;2.88;;;;;;;38.03;42.57;95374.56;5092457;28;20218;-52
2023/07/15 11:03:37;;;;;;;1.08;0.98;;;;;;;38.99;43.97;95361.00;5092277;28;20259;-52
2023/07/15 11:06:06;;;;;;;1.40;1.30;;;;;;;40.24;40.04;95367.56;5092581;28;20239;-53
2023/07/15 11:08:40;;;;;;;3.28;1.88;;;;;;;39.31;40.51;95368.91;5083525;28;20263;-54
2023/07/15 11:11:11;;;;;;;0.90;0.80;;;;;;;38.89;42.16;95370.47;5092422;28;20200;-53
2023/07/15 11:13:42;;;;;;;1.23;1.13;;;;;;;39.50;41.09;95355.88;5092207;28;20395;-52
2023/07/15 11:16:10;;;;;;;2.38;0.98;;;;;;;40.52;39.87;95349.72;5092426;28;20197;-52
2023/07/15 11:18:39;;;;;;;1.38;1.27;;;;;;;39.83;40.66;95346.63;5092435;28;20280;-52
2023/07/15 11:21:08;;;;;;;0.82;0.80;;;;;;;40.42;38.68;95336.25;5091897;28;20732;-52
2023/07/15 11:23:36;;;;;;;5.10;1.02;;;;;;;41.06;38.45;95343.34;5092370;28;20221;-52
2023/07/15 11:26:09;;;;;;;5.68;1.35;;;;;;;40.53;38.09;95334.56;5092662;28;20193;-52
2023/07/15 11:28:49;;;;;;;0.98;0.98;;;;;;;40.85;36.67;95329.63;5091975;28;20197;-53
2023/07/15 11:31:20;;;;;;;1.10;0.80;;;;;;;40.76;36.61;95324.84;5092061;28;20193;-54
2023/07/15 11:33:51;;;;;;;1.67;1.58;;;;;;;40.67;37.49;95324.84;5092256;28;20197;-52
2023/07/15 11:36:20;;;;;;;2.17;0.57;;;;;;;39.22;38.50;95327.22;5091498;28;20296;-52
2023/07/15 11:38:48;;;;;;;2.72;1.10;;;;;;;38.82;39.38;95326.34;5092034;28;20190;-52
2023/07/15 11:41:17;;;;;;;4.85;1.02;;;;;;;38.55;42.74;95319.38;5091377;28;20233;-52